createdAt,value
2022-10-05T00:00:20.765Z,16.40
2022-10-05T00:02:49.720Z,16.30
2022-10-05T00:05:30.389Z,16.30
2022-10-05T00:08:06.238Z,16.30
2022-10-05T00:10:34.759Z,16.20
2022-10-05T00:13:07.321Z,16.10
2022-10-05T00:15:37.387Z,16.20
2022-10-05T00:18:13.970Z,16.10
2022-10-05T00:20:43.611Z,16.10
2022-10-05T00:23:18.934Z,16.10
2022-10-05T00:25:47.702Z,16.00
2022-10-05T00:28:27.675Z,16.00
2022-10-05T00:30:57.244Z,15.90
2022-10-05T00:33:25.929Z,15.90
2022-10-05T00:35:56.001Z,16.00
2022-10-05T00:38:24.818Z,16.00
2022-10-05T00:41:05.721Z,16.00
2022-10-05T00:44:07.011Z,16.00
2022-10-05T00:46:49.605Z,15.90
2022-10-05T00:49:43.712Z,15.90
2022-10-05T00:52:22.167Z,15.90
2022-10-05T00:54:59.726Z,15.90
2022-10-05T00:57:38.621Z,15.90
2022-10-05T01:00:12.487Z,15.90
2022-10-05T01:02:55.482Z,15.90
2022-10-05T01:05:34.836Z,15.90
2022-10-05T01:08:12.882Z,15.80
2022-10-05T01:10:48.679Z,15.80
2022-10-05T01:13:25.646Z,15.80
2022-10-05T01:16:04.221Z,15.80
2022-10-05T01:18:40.653Z,15.80
2022-10-05T01:21:16.767Z,15.70
2022-10-05T01:24:15.192Z,15.70
2022-10-05T01:27:08.916Z,15.60
2022-10-05T01:29:44.188Z,15.60
2022-10-05T01:32:23.777Z,15.60
2022-10-05T01:35:01.032Z,15.60
2022-10-05T01:37:43.224Z,15.60
2022-10-05T01:40:19.804Z,15.60
2022-10-05T01:43:00.277Z,15.60
2022-10-05T01:45:40.625Z,15.60
2022-10-05T01:48:16.345Z,15.60
2022-10-05T01:50:53.959Z,15.60
2022-10-05T01:53:36.465Z,15.60
2022-10-05T01:56:15.788Z,15.50
2022-10-05T01:58:52.593Z,15.50
2022-10-05T02:01:34.555Z,15.50
2022-10-05T02:04:08.484Z,15.50
2022-10-05T02:06:41.648Z,15.50
2022-10-05T02:09:15.572Z,15.50
2022-10-05T02:11:48.494Z,15.40
2022-10-05T02:14:22.549Z,15.30
2022-10-05T02:16:55.708Z,15.30
2022-10-05T02:19:28.624Z,15.30
2022-10-05T02:22:03.200Z,15.30
2022-10-05T02:24:38.865Z,15.30
2022-10-05T02:27:10.492Z,15.40
2022-10-05T02:29:46.724Z,15.30
2022-10-05T02:32:22.786Z,15.30
2022-10-05T02:34:51.560Z,15.30
2022-10-05T02:37:37.855Z,15.30
2022-10-05T02:40:18.693Z,15.20
2022-10-05T02:42:57.556Z,15.20
2022-10-05T02:45:37.334Z,15.20
2022-10-05T02:48:13.332Z,15.20
2022-10-05T02:50:50.630Z,15.10
2022-10-05T02:53:26.117Z,15.10
2022-10-05T02:56:04.197Z,15.10
2022-10-05T02:58:40.140Z,15.10
2022-10-05T03:01:18.177Z,15.10
2022-10-05T03:03:57.276Z,15.00
2022-10-05T03:06:31.918Z,15.00
2022-10-05T03:09:04.181Z,15.00
2022-10-05T03:11:42.802Z,15.00
2022-10-05T03:14:18.412Z,14.90
2022-10-05T03:16:56.798Z,14.90
2022-10-05T03:19:48.367Z,14.90
2022-10-05T03:22:29.809Z,14.90
2022-10-05T03:25:19.238Z,14.90
2022-10-05T03:27:53.374Z,14.90
2022-10-05T03:30:26.589Z,14.90
2022-10-05T03:33:04.112Z,14.80
2022-10-05T03:35:42.577Z,14.80
2022-10-05T03:38:19.115Z,14.80
2022-10-05T03:40:55.847Z,14.70
2022-10-05T03:43:41.672Z,14.70
2022-10-05T03:46:17.027Z,14.70
2022-10-05T03:48:53.753Z,14.70
2022-10-05T03:51:35.343Z,14.70
2022-10-05T03:54:12.718Z,14.70
2022-10-05T03:56:46.658Z,14.70
2022-10-05T03:59:20.701Z,14.70
2022-10-05T04:01:54.962Z,14.70
2022-10-05T04:04:29.339Z,14.70
2022-10-05T04:07:01.212Z,14.70
2022-10-05T04:09:35.163Z,14.70
2022-10-05T04:12:10.835Z,14.70
2022-10-05T04:14:42.581Z,14.70
2022-10-05T04:17:14.943Z,14.70
2022-10-05T04:19:47.358Z,14.70
2022-10-05T04:22:23.068Z,14.70
2022-10-05T04:24:56.083Z,14.70
2022-10-05T04:27:30.453Z,14.70
2022-10-05T04:30:05.242Z,14.70
2022-10-05T04:32:39.959Z,14.70
2022-10-05T04:35:24.775Z,14.70
2022-10-05T04:38:02.779Z,14.70
2022-10-05T04:40:41.879Z,14.70
2022-10-05T04:43:16.475Z,14.70
2022-10-05T04:46:17.220Z,14.60
2022-10-05T04:49:25.803Z,14.60
2022-10-05T04:52:02.131Z,14.60
2022-10-05T04:54:45.519Z,14.60
2022-10-05T04:57:20.628Z,14.60
2022-10-05T05:00:16.950Z,14.50
2022-10-05T05:03:04.719Z,14.50
2022-10-05T05:06:05.037Z,14.50
2022-10-05T05:08:48.992Z,14.50
2022-10-05T05:11:30.043Z,14.50
2022-10-05T05:14:33.245Z,14.50
2022-10-05T05:17:16.688Z,14.60
2022-10-05T05:19:54.759Z,14.60
2022-10-05T05:22:30.945Z,14.60
2022-10-05T05:25:18.312Z,14.60
2022-10-05T05:27:54.910Z,14.60
2022-10-05T05:30:31.469Z,14.50
2022-10-05T05:33:12.277Z,14.50
2022-10-05T05:36:05.921Z,14.50
2022-10-05T05:38:39.984Z,14.50
2022-10-05T05:41:12.200Z,14.50
2022-10-05T05:43:55.564Z,14.50
2022-10-05T05:46:51.236Z,14.60
2022-10-05T05:49:21.932Z,14.60
2022-10-05T05:51:56.733Z,14.60
2022-10-05T05:54:31.343Z,14.70
2022-10-05T05:57:09.087Z,14.70
2022-10-05T05:59:52.997Z,14.80
2022-10-05T06:02:27.588Z,14.90
2022-10-05T06:05:02.187Z,15.00
2022-10-05T06:07:32.608Z,15.00
2022-10-05T06:10:26.447Z,15.10
2022-10-05T06:13:20.756Z,15.20
2022-10-05T06:15:55.846Z,15.20
2022-10-05T06:18:25.484Z,15.30
2022-10-05T06:21:00.675Z,15.40
2022-10-05T06:23:36.666Z,15.50
2022-10-05T06:26:17.524Z,15.80
2022-10-05T06:28:52.238Z,16.20
2022-10-05T06:31:36.514Z,16.90
2022-10-05T06:34:23.757Z,17.50
2022-10-05T06:36:56.039Z,18.00
2022-10-05T06:39:46.797Z,18.50
2022-10-05T06:42:27.987Z,18.90
2022-10-05T06:45:30.440Z,19.30
2022-10-05T06:48:21.193Z,19.80
2022-10-05T06:51:16.958Z,20.20
2022-10-05T06:54:06.708Z,20.50
2022-10-05T06:56:40.996Z,20.90
2022-10-05T06:59:15.385Z,21.00
2022-10-05T07:01:54.425Z,21.30
2022-10-05T07:04:45.466Z,21.60
2022-10-05T07:07:23.369Z,21.80
2022-10-05T07:10:05.609Z,22.10
2022-10-05T07:12:54.198Z,22.40
2022-10-05T07:15:42.601Z,22.80
2022-10-05T07:18:32.107Z,23.10
2022-10-05T07:21:10.461Z,23.40
2022-10-05T07:24:05.792Z,23.60
2022-10-05T07:26:40.733Z,23.90
2022-10-05T07:29:22.151Z,24.20
2022-10-05T07:31:58.899Z,24.60
2022-10-05T07:34:37.538Z,24.90
2022-10-05T07:37:28.311Z,25.20
2022-10-05T07:40:05.229Z,25.70
2022-10-05T07:42:51.745Z,26.10
2022-10-05T07:45:29.989Z,26.30
2022-10-05T07:48:06.886Z,26.70
2022-10-05T07:50:39.823Z,26.80
2022-10-05T07:53:17.635Z,26.90
2022-10-05T07:55:51.194Z,27.10
2022-10-05T07:58:27.597Z,27.60
2022-10-05T08:01:05.577Z,28.10
2022-10-05T08:03:49.408Z,28.40
2022-10-05T08:06:42.003Z,28.30
2022-10-05T08:09:23.749Z,28.80
2022-10-05T08:11:58.712Z,28.80
2022-10-05T08:14:33.693Z,28.90
2022-10-05T08:17:07.240Z,28.90
2022-10-05T08:20:03.233Z,28.90
2022-10-05T08:22:36.114Z,28.80
2022-10-05T08:25:10.953Z,28.40
2022-10-05T08:27:47.304Z,27.90
2022-10-05T08:30:17.300Z,27.40
2022-10-05T08:32:51.765Z,27.10
2022-10-05T08:35:28.884Z,26.60
2022-10-05T08:37:58.045Z,26.20
2022-10-05T08:41:07.156Z,26.10
2022-10-05T08:44:10.793Z,25.80
2022-10-05T08:47:13.649Z,25.30
2022-10-05T08:50:12.661Z,24.90
2022-10-05T08:53:06.722Z,24.90
2022-10-05T08:55:44.632Z,24.90
2022-10-05T08:58:47.027Z,24.70
2022-10-05T09:01:23.890Z,24.40
2022-10-05T09:04:40.163Z,24.30
2022-10-05T09:07:29.664Z,24.10
2022-10-05T09:10:32.449Z,24.00
2022-10-05T09:13:46.393Z,23.90
2022-10-05T09:16:39.324Z,23.80
2022-10-05T09:19:45.356Z,23.30
2022-10-05T09:22:17.018Z,23.20
2022-10-05T09:24:56.453Z,22.80
2022-10-05T09:27:37.336Z,22.60
2022-10-05T09:30:22.616Z,22.60
2022-10-05T09:33:16.992Z,22.90
2022-10-05T09:36:39.294Z,23.10
2022-10-05T09:39:36.527Z,23.20
2022-10-05T09:42:39.669Z,22.90
2022-10-05T09:45:37.508Z,22.90
2022-10-05T09:48:39.959Z,22.80
2022-10-05T09:51:43.831Z,22.60
2022-10-05T09:55:01.273Z,22.50
2022-10-05T09:57:54.834Z,22.40
2022-10-05T10:00:31.017Z,22.60
2022-10-05T10:03:23.256Z,22.80
2022-10-05T10:06:30.561Z,22.90
2022-10-05T10:09:37.891Z,23.00
2022-10-05T10:12:29.409Z,23.00
2022-10-05T10:15:34.347Z,23.10
2022-10-05T10:18:30.725Z,23.20
2022-10-05T10:21:29.411Z,23.00
2022-10-05T10:24:28.726Z,22.80
2022-10-05T10:27:12.223Z,22.70
2022-10-05T10:30:10.259Z,22.60
2022-10-05T10:33:11.343Z,22.60
2022-10-05T10:35:45.951Z,22.60
2022-10-05T10:38:36.343Z,22.50
2022-10-05T10:41:40.263Z,22.50
2022-10-05T10:44:47.025Z,22.50
2022-10-05T10:47:40.137Z,22.50
2022-10-05T10:50:50.515Z,22.60
2022-10-05T10:53:51.084Z,22.80
2022-10-05T10:56:44.513Z,22.80
2022-10-05T10:59:57.880Z,22.70
2022-10-05T11:03:10.349Z,22.80
2022-10-05T11:06:17.272Z,22.80
2022-10-05T11:09:15.360Z,22.90
2022-10-05T11:12:17.834Z,22.90
2022-10-05T11:15:12.171Z,22.70
2022-10-05T11:18:00.806Z,22.70
2022-10-05T11:20:58.812Z,22.80
2022-10-05T11:23:57.982Z,22.70
2022-10-05T11:26:41.149Z,22.80
2022-10-05T11:29:30.312Z,22.90
2022-10-05T11:32:35.230Z,23.00
2022-10-05T11:35:29.465Z,23.00
2022-10-05T11:38:30.281Z,23.00
2022-10-05T11:41:33.823Z,23.00
2022-10-05T11:44:32.044Z,23.10
2022-10-05T11:47:05.070Z,23.20
2022-10-05T11:49:41.278Z,23.40
2022-10-05T11:52:20.312Z,23.20
2022-10-05T11:55:19.295Z,23.10
2022-10-05T11:57:52.967Z,23.20
2022-10-05T12:00:23.488Z,23.20
2022-10-05T12:03:31.721Z,23.30
2022-10-05T12:06:21.959Z,23.30
2022-10-05T12:09:03.771Z,23.30
2022-10-05T12:11:57.737Z,23.30
2022-10-05T12:14:38.505Z,23.30
2022-10-05T12:17:18.516Z,23.30
2022-10-05T12:19:49.985Z,23.40
2022-10-05T12:22:23.006Z,23.40
2022-10-05T12:25:07.330Z,23.40
2022-10-05T12:27:40.392Z,23.50
2022-10-05T12:30:18.718Z,23.50
2022-10-05T12:33:00.924Z,23.50
2022-10-05T12:35:48.000Z,23.60
2022-10-05T12:38:27.048Z,23.60
2022-10-05T12:41:05.188Z,23.40
2022-10-05T12:43:42.676Z,23.50
2022-10-05T12:46:23.258Z,23.50
2022-10-05T12:49:28.117Z,23.70
2022-10-05T12:51:59.416Z,23.60
2022-10-05T12:54:37.468Z,23.60
2022-10-05T12:57:14.034Z,23.70
2022-10-05T12:59:48.752Z,23.70
2022-10-05T13:02:27.195Z,23.80
2022-10-05T13:05:04.299Z,23.80
2022-10-05T13:07:48.008Z,23.70
2022-10-05T13:10:31.836Z,23.70
2022-10-05T13:13:13.579Z,23.70
2022-10-05T13:15:49.281Z,23.70
2022-10-05T13:18:27.271Z,23.70
2022-10-05T13:21:04.488Z,23.70
2022-10-05T13:23:43.637Z,23.70
2022-10-05T13:26:15.754Z,23.70
2022-10-05T13:28:52.827Z,23.70
2022-10-05T13:31:25.520Z,23.80
2022-10-05T13:34:12.745Z,23.80
2022-10-05T13:36:51.639Z,23.80
2022-10-05T13:39:31.696Z,23.80
2022-10-05T13:42:06.114Z,23.70
2022-10-05T13:44:39.860Z,23.70
2022-10-05T13:47:16.785Z,23.70
2022-10-05T13:49:55.178Z,23.80
2022-10-05T13:52:43.526Z,23.80
2022-10-05T13:55:22.192Z,23.90
2022-10-05T13:58:02.515Z,23.90
2022-10-05T14:00:31.546Z,23.90
2022-10-05T14:03:02.014Z,23.90
2022-10-05T14:05:32.935Z,23.90
2022-10-05T14:08:18.259Z,23.80
2022-10-05T14:10:48.324Z,23.90
2022-10-05T14:13:23.570Z,23.90
2022-10-05T14:16:21.258Z,24.00
2022-10-05T14:18:56.174Z,24.00
2022-10-05T14:21:27.603Z,23.90
2022-10-05T14:23:58.779Z,23.80
2022-10-05T14:26:38.551Z,23.80
2022-10-05T14:29:19.520Z,23.70
2022-10-05T14:31:52.378Z,23.80
2022-10-05T14:34:31.239Z,23.80
2022-10-05T14:37:09.999Z,23.80
2022-10-05T14:39:43.722Z,23.80
2022-10-05T14:42:18.112Z,23.90
2022-10-05T14:44:57.838Z,23.90
2022-10-05T14:47:30.356Z,23.90
2022-10-05T14:50:14.044Z,23.90
2022-10-05T14:52:51.725Z,23.90
2022-10-05T14:55:42.694Z,24.00
2022-10-05T14:58:35.070Z,23.90
2022-10-05T15:01:13.698Z,23.90
2022-10-05T15:03:52.175Z,23.80
2022-10-05T15:06:28.161Z,23.80
2022-10-05T15:09:20.076Z,23.70
2022-10-05T15:11:52.393Z,23.70
2022-10-05T15:14:24.964Z,23.80
2022-10-05T15:16:55.653Z,23.80
2022-10-05T15:19:28.564Z,23.80
2022-10-05T15:22:24.663Z,23.70
2022-10-05T15:25:03.588Z,23.70
2022-10-05T15:27:44.016Z,23.70
2022-10-05T15:30:17.904Z,23.70
2022-10-05T15:33:08.971Z,23.70
2022-10-05T15:35:55.363Z,23.70
2022-10-05T15:38:26.565Z,23.70
2022-10-05T15:41:09.341Z,23.70
2022-10-05T15:43:48.711Z,23.70
2022-10-05T15:46:23.414Z,23.60
2022-10-05T15:49:08.529Z,23.60
2022-10-05T15:51:50.219Z,23.60
2022-10-05T15:54:43.961Z,23.50
2022-10-05T15:57:31.178Z,23.50
2022-10-05T16:00:04.346Z,23.40
2022-10-05T16:02:40.992Z,23.40
2022-10-05T16:05:45.877Z,23.40
2022-10-05T16:08:40.496Z,23.40
2022-10-05T16:11:16.987Z,23.40
2022-10-05T16:13:55.521Z,23.30
2022-10-05T16:16:30.080Z,23.30
2022-10-05T16:19:05.219Z,23.30
2022-10-05T16:21:44.182Z,23.20
2022-10-05T16:24:24.356Z,23.20
2022-10-05T16:27:00.693Z,23.10
2022-10-05T16:29:40.406Z,23.10
2022-10-05T16:32:14.879Z,23.00
2022-10-05T16:35:00.747Z,23.00
2022-10-05T16:37:39.146Z,22.90
2022-10-05T16:40:15.983Z,22.90
2022-10-05T16:42:54.374Z,22.80
2022-10-05T16:45:44.807Z,22.80
2022-10-05T16:48:19.765Z,22.70
2022-10-05T16:50:57.444Z,22.60
2022-10-05T16:53:31.713Z,22.60
2022-10-05T16:56:04.777Z,22.60
2022-10-05T16:58:45.453Z,22.50
2022-10-05T17:01:27.407Z,22.50
2022-10-05T17:04:12.164Z,22.40
2022-10-05T17:07:17.880Z,22.40
2022-10-05T17:10:13.324Z,22.30
2022-10-05T17:12:56.227Z,22.20
2022-10-05T17:15:41.006Z,22.10
2022-10-05T17:18:24.910Z,22.10
2022-10-05T17:21:02.518Z,22.00
2022-10-05T17:23:51.660Z,21.90
2022-10-05T17:26:38.727Z,21.90
2022-10-05T17:29:15.229Z,21.80
2022-10-05T17:32:03.140Z,21.70
2022-10-05T17:34:34.771Z,21.60
2022-10-05T17:37:19.196Z,21.50
2022-10-05T17:39:50.433Z,21.40
2022-10-05T17:42:47.336Z,21.40
2022-10-05T17:45:52.720Z,21.30
2022-10-05T17:49:04.092Z,21.30
2022-10-05T17:52:19.295Z,21.30
2022-10-05T17:55:30.588Z,21.20
2022-10-05T17:58:02.064Z,21.20
2022-10-05T18:00:42.114Z,21.10
2022-10-05T18:03:37.381Z,21.10
2022-10-05T18:06:33.306Z,21.10
2022-10-05T18:09:33.076Z,21.10
2022-10-05T18:12:39.862Z,21.10
2022-10-05T18:15:44.127Z,21.00
2022-10-05T18:18:54.702Z,20.90
2022-10-05T18:21:35.698Z,20.90
2022-10-05T18:24:31.437Z,20.80
2022-10-05T18:27:16.313Z,20.70
2022-10-05T18:30:05.559Z,20.70
2022-10-05T18:32:48.053Z,20.60
2022-10-05T18:35:21.006Z,20.50
2022-10-05T18:38:03.087Z,20.40
2022-10-05T18:40:43.333Z,20.30
2022-10-05T18:43:29.087Z,20.20
2022-10-05T18:46:12.775Z,20.20
2022-10-05T18:48:50.202Z,20.10
2022-10-05T18:51:24.471Z,20.10
2022-10-05T18:54:13.017Z,20.00
2022-10-05T18:56:47.420Z,19.90
2022-10-05T18:59:36.429Z,19.80
2022-10-05T19:02:19.947Z,19.80
2022-10-05T19:05:02.791Z,19.60
2022-10-05T19:07:44.115Z,19.60
2022-10-05T19:10:23.071Z,19.50
2022-10-05T19:13:05.013Z,19.40
2022-10-05T19:15:46.300Z,19.40
2022-10-05T19:18:33.053Z,19.30
2022-10-05T19:21:12.132Z,19.30
2022-10-05T19:23:56.443Z,19.20
2022-10-05T19:26:42.614Z,19.20
2022-10-05T19:29:23.034Z,19.10
2022-10-05T19:32:00.868Z,19.10
2022-10-05T19:34:44.846Z,19.10
2022-10-05T19:37:18.843Z,19.00
2022-10-05T19:39:55.265Z,19.00
2022-10-05T19:42:50.137Z,19.00
2022-10-05T19:45:23.721Z,18.90
2022-10-05T19:48:12.845Z,18.90
2022-10-05T19:50:52.892Z,18.80
2022-10-05T19:53:28.250Z,18.80
2022-10-05T19:55:57.435Z,18.70
2022-10-05T19:58:28.311Z,18.70
2022-10-05T20:00:59.510Z,18.70
2022-10-05T20:03:31.694Z,18.60
2022-10-05T20:06:02.281Z,18.50
2022-10-05T20:08:40.391Z,18.40
2022-10-05T20:11:13.150Z,18.40
2022-10-05T20:13:43.330Z,18.40
2022-10-05T20:16:38.536Z,18.50
2022-10-05T20:19:48.308Z,18.40
2022-10-05T20:22:32.920Z,18.40
2022-10-05T20:25:03.887Z,18.30
2022-10-05T20:27:47.154Z,18.30
2022-10-05T20:30:18.388Z,18.30
2022-10-05T20:32:49.418Z,18.20
2022-10-05T20:35:21.840Z,18.20
2022-10-05T20:37:51.004Z,18.20
2022-10-05T20:40:20.393Z,18.20
2022-10-05T20:42:49.054Z,18.10
2022-10-05T20:45:17.314Z,18.10
2022-10-05T20:47:46.630Z,18.10
2022-10-05T20:50:15.800Z,18.00
2022-10-05T20:52:45.906Z,17.90
2022-10-05T20:55:14.233Z,17.90
2022-10-05T20:57:42.678Z,17.80
2022-10-05T21:00:12.836Z,17.80
2022-10-05T21:02:41.162Z,17.80
2022-10-05T21:05:10.627Z,17.80
2022-10-05T21:07:39.639Z,17.70
2022-10-05T21:10:10.137Z,17.70
2022-10-05T21:12:38.579Z,17.60
2022-10-05T21:15:07.813Z,17.60
2022-10-05T21:17:39.156Z,17.50
2022-10-05T21:20:11.570Z,17.50
2022-10-05T21:22:39.961Z,17.50
2022-10-05T21:25:10.360Z,17.50
2022-10-05T21:27:38.803Z,17.50
2022-10-05T21:30:08.233Z,17.40
2022-10-05T21:32:40.578Z,17.40
2022-10-05T21:35:11.640Z,17.40
2022-10-05T21:37:39.941Z,17.30
2022-10-05T21:40:10.622Z,17.30
2022-10-05T21:42:39.141Z,17.30
2022-10-05T21:45:08.616Z,17.30
2022-10-05T21:47:37.209Z,17.30
2022-10-05T21:50:08.009Z,17.20
2022-10-05T21:52:37.162Z,17.20
2022-10-05T21:55:07.073Z,17.20
2022-10-05T21:57:37.468Z,17.20
2022-10-05T22:00:08.980Z,17.10
2022-10-05T22:02:37.729Z,17.10
2022-10-05T22:05:06.535Z,17.00
2022-10-05T22:07:35.093Z,17.00
2022-10-05T22:10:05.728Z,17.00
2022-10-05T22:12:35.853Z,16.90
2022-10-05T22:15:04.933Z,16.90
2022-10-05T22:17:33.458Z,16.90
2022-10-05T22:20:02.744Z,16.90
2022-10-05T22:22:33.190Z,16.90
2022-10-05T22:25:01.503Z,16.90
2022-10-05T22:27:31.716Z,16.90
2022-10-05T22:30:03.114Z,16.90
2022-10-05T22:32:31.682Z,16.90
2022-10-05T22:34:59.991Z,16.80
2022-10-05T22:37:28.430Z,16.80
2022-10-05T22:39:56.742Z,16.80
2022-10-05T22:42:25.026Z,16.80
2022-10-05T22:44:53.359Z,16.80
2022-10-05T22:47:22.964Z,16.70
2022-10-05T22:49:51.524Z,16.70
2022-10-05T22:52:19.812Z,16.70
2022-10-05T22:54:48.082Z,16.60
2022-10-05T22:57:16.378Z,16.60
2022-10-05T22:59:44.860Z,16.60
2022-10-05T23:02:14.145Z,16.60
2022-10-05T23:04:43.929Z,16.50
2022-10-05T23:07:12.265Z,16.50
2022-10-05T23:09:40.636Z,16.40
2022-10-05T23:12:08.896Z,16.40
2022-10-05T23:14:37.189Z,16.30
2022-10-05T23:17:06.041Z,16.30
2022-10-05T23:19:34.376Z,16.30
2022-10-05T23:22:04.065Z,16.20
2022-10-05T23:24:32.463Z,16.20
2022-10-05T23:27:00.863Z,16.20
2022-10-05T23:29:29.560Z,16.20
2022-10-05T23:31:57.920Z,16.20
2022-10-05T23:34:27.340Z,16.20
2022-10-05T23:36:55.712Z,16.10
2022-10-05T23:39:25.395Z,16.10
2022-10-05T23:41:53.775Z,16.10
2022-10-05T23:44:23.063Z,16.10
2022-10-05T23:46:51.383Z,16.10
2022-10-05T23:49:19.830Z,16.00
2022-10-05T23:51:48.168Z,16.00
2022-10-05T23:54:16.464Z,16.00
2022-10-05T23:56:46.132Z,15.90
2022-10-05T23:59:14.389Z,15.90
